Garden City, Michigan
Current Conditions -  °F | °C
As of 10:53 AM on Saturday 20 Dec 2014 (Local Time) from KDTW Reporting Station
Overcast Overcast  
Wind Chill: 29°   Ceiling: 2700
Heat Index: 29°   Visibility: 9mi
Dew Point: 22°   Wind: 0mph
Humidity: 75%   Direction: NA
Pressure: 30.32"   Gusts: NA
Location:  42.33°N, 83.33°W
Report Text: KDTW 201553Z 00000KT 9SM OVC027 M02/M06 A3032 RMK AO2 SLP276 T10171056 $
Loading
Personal Weather Stations






























Interactive Weather Map New forecast layout! Learn more

10-Day Weather Forecast

Advertisements
Track Severe Weather on mobile